createdAt,value
2018-12-08T00:01:44.806Z,58.72
2018-12-08T00:04:10.914Z,57.55
2018-12-08T00:06:37.153Z,58.13
2018-12-08T00:09:04.717Z,58.34
2018-12-08T00:11:30.903Z,58.73
2018-12-08T00:13:57.154Z,58.38
2018-12-08T00:16:23.427Z,58.38
2018-12-08T00:18:49.612Z,58.08
2018-12-08T00:21:15.882Z,58.89
2018-12-08T00:23:42.573Z,59.24
2018-12-08T00:26:15.766Z,58.78
2018-12-08T00:28:41.878Z,60.71
2018-12-08T00:31:26.808Z,72.81
2018-12-08T00:33:53.227Z,83.63
2018-12-08T00:36:19.334Z,85.58
2018-12-08T00:38:45.545Z,84.75
2018-12-08T00:41:12.521Z,84.31
2018-12-08T00:43:39.721Z,84.75
2018-12-08T00:46:06.773Z,84.80
2018-12-08T00:48:32.895Z,84.15
2018-12-08T00:51:00.633Z,82.71
2018-12-08T00:53:26.946Z,82.38
2018-12-08T00:55:53.239Z,81.96
2018-12-08T00:58:19.469Z,80.71
2018-12-08T01:00:45.721Z,80.08
2018-12-08T01:03:12.031Z,79.24
2018-12-08T01:05:38.276Z,79.89
2018-12-08T01:08:04.484Z,76.34
2018-12-08T01:10:32.277Z,76.21
2018-12-08T01:12:58.493Z,76.60
2018-12-08T01:15:24.843Z,75.93
2018-12-08T01:17:51.037Z,75.56
2018-12-08T01:20:17.162Z,75.45
2018-12-08T01:22:43.364Z,72.99
2018-12-08T01:25:09.598Z,72.58
2018-12-08T01:27:35.901Z,72.86
2018-12-08T01:30:04.636Z,72.99
2018-12-08T01:32:30.946Z,71.11
2018-12-08T01:34:57.779Z,72.08
2018-12-08T01:37:23.919Z,71.05
2018-12-08T01:39:50.094Z,70.57
2018-12-08T01:42:16.274Z,71.05
2018-12-08T01:44:42.441Z,70.49
2018-12-08T01:47:08.755Z,71.17
2018-12-08T01:49:34.879Z,70.54
2018-12-08T01:52:01.213Z,70.13
2018-12-08T01:54:27.490Z,70.25
2018-12-08T01:56:53.873Z,70.77
2018-12-08T01:59:20.070Z,70.13
2018-12-08T02:01:46.353Z,69.87
2018-12-08T02:04:12.460Z,69.45
2018-12-08T02:06:38.794Z,69.56
2018-12-08T02:09:07.388Z,69.18
2018-12-08T02:11:34.009Z,69.13
2018-12-08T02:14:00.262Z,68.49
2018-12-08T02:16:26.565Z,67.76
2018-12-08T02:18:52.791Z,68.06
2018-12-08T02:21:19.018Z,68.06
2018-12-08T02:23:45.229Z,67.93
2018-12-08T02:26:12.281Z,68.07
2018-12-08T02:28:38.374Z,67.61
2018-12-08T02:31:04.571Z,67.18
2018-12-08T02:33:30.779Z,66.88
2018-12-08T02:35:56.905Z,67.06
2018-12-08T02:38:23.245Z,68.20
2018-12-08T02:40:50.332Z,67.56
2018-12-08T02:43:16.549Z,66.97
2018-12-08T02:45:42.737Z,67.61
2018-12-08T02:48:08.864Z,66.85
2018-12-08T02:50:35.006Z,67.36
2018-12-08T02:53:01.143Z,67.53
2018-12-08T02:55:27.316Z,66.73
2018-12-08T02:57:53.518Z,66.07
2018-12-08T03:00:19.800Z,66.49
2018-12-08T03:02:46.544Z,66.88
2018-12-08T03:05:12.880Z,66.87
2018-12-08T03:07:39.226Z,67.38
2018-12-08T03:10:06.028Z,66.62
2018-12-08T03:12:32.273Z,67.39
2018-12-08T03:14:58.375Z,66.08
2018-12-08T03:17:24.700Z,66.29
2018-12-08T03:19:50.912Z,66.57
2018-12-08T03:22:17.904Z,66.51
2018-12-08T03:24:44.032Z,66.50
2018-12-08T03:27:10.278Z,65.75
2018-12-08T03:29:36.601Z,66.05
2018-12-08T03:32:02.951Z,65.74
2018-12-08T03:34:29.104Z,66.14
2018-12-08T03:36:55.225Z,66.18
2018-12-08T03:39:21.501Z,66.01
2018-12-08T03:41:49.229Z,65.71
2018-12-08T03:44:15.685Z,64.97
2018-12-08T03:46:42.023Z,65.89
2018-12-08T03:49:08.127Z,65.28
2018-12-08T03:51:34.413Z,64.70
2018-12-08T03:54:00.626Z,64.28
2018-12-08T03:56:33.911Z,64.31
2018-12-08T03:59:00.056Z,63.82
2018-12-08T04:01:26.385Z,64.01
2018-12-08T04:03:52.593Z,64.40
2018-12-08T04:06:18.899Z,64.69
2018-12-08T04:08:45.208Z,64.85
2018-12-08T04:11:11.559Z,63.68
2018-12-08T04:13:37.841Z,63.97
2018-12-08T04:16:05.039Z,63.49
2018-12-08T04:18:31.118Z,62.90
2018-12-08T04:20:57.465Z,62.71
2018-12-08T04:23:23.654Z,62.99
2018-12-08T04:25:49.828Z,62.47
2018-12-08T04:28:16.110Z,62.07
2018-12-08T04:30:42.354Z,62.18
2018-12-08T04:33:08.540Z,61.91
2018-12-08T04:35:34.830Z,61.29
2018-12-08T04:38:01.190Z,60.92
2018-12-08T04:40:27.294Z,60.52
2018-12-08T04:42:53.520Z,60.18
2018-12-08T04:45:19.764Z,60.24
2018-12-08T04:47:46.137Z,59.86
2018-12-08T04:50:12.261Z,59.60
2018-12-08T04:52:38.396Z,60.50
2018-12-08T04:55:04.923Z,59.42
2018-12-08T04:57:31.254Z,59.72
2018-12-08T04:59:57.380Z,59.75
2018-12-08T05:02:23.510Z,59.48
2018-12-08T05:04:49.935Z,60.00
2018-12-08T05:07:16.127Z,60.88
2018-12-08T05:09:42.365Z,60.94
2018-12-08T05:12:08.545Z,60.15
2018-12-08T05:14:34.764Z,60.64
2018-12-08T05:17:01.000Z,60.91
2018-12-08T05:19:27.305Z,60.43
2018-12-08T05:21:53.391Z,60.44
2018-12-08T05:24:19.606Z,59.81
2018-12-08T05:26:47.277Z,59.81
2018-12-08T05:29:14.079Z,59.12
2018-12-08T05:31:40.297Z,59.74
2018-12-08T05:34:06.501Z,59.41
2018-12-08T05:36:32.721Z,59.16
2018-12-08T05:38:58.908Z,58.53
2018-12-08T05:41:32.277Z,59.16
2018-12-08T05:43:58.607Z,58.27
2018-12-08T05:46:24.931Z,58.58
2018-12-08T05:48:51.107Z,58.23
2018-12-08T05:51:17.437Z,58.13
2018-12-08T05:53:43.599Z,57.69
2018-12-08T05:56:09.777Z,58.19
2018-12-08T05:58:35.879Z,57.80
2018-12-08T06:01:02.004Z,57.54
2018-12-08T06:03:28.446Z,57.46
2018-12-08T06:05:54.722Z,56.98
2018-12-08T06:08:20.946Z,57.22
2018-12-08T06:10:47.237Z,56.94
2018-12-08T06:13:13.452Z,56.37
2018-12-08T06:15:39.581Z,56.04
2018-12-08T06:18:05.796Z,55.72
2018-12-08T06:20:32.072Z,56.04
2018-12-08T06:22:58.198Z,56.19
2018-12-08T06:25:26.658Z,55.74
2018-12-08T06:28:00.508Z,55.40
2018-12-08T06:30:26.715Z,55.08
2018-12-08T06:32:52.812Z,55.14
2018-12-08T06:35:19.109Z,55.29
2018-12-08T06:37:45.330Z,55.27
2018-12-08T06:40:11.732Z,53.99
2018-12-08T06:42:38.032Z,54.91
2018-12-08T06:45:04.549Z,54.55
2018-12-08T06:47:30.880Z,54.81
2018-12-08T06:49:57.018Z,55.26
2018-12-08T06:52:23.323Z,55.36
2018-12-08T06:54:49.642Z,56.00
2018-12-08T06:57:15.754Z,56.29
2018-12-08T06:59:41.914Z,56.73
2018-12-08T07:02:08.374Z,57.12
2018-12-08T07:04:34.891Z,57.64
2018-12-08T07:07:01.046Z,58.61
2018-12-08T07:09:27.313Z,58.66
2018-12-08T07:11:53.592Z,58.03
2018-12-08T07:14:19.711Z,58.58
2018-12-08T07:16:46.004Z,58.31
2018-12-08T07:19:12.240Z,58.27
2018-12-08T07:21:38.759Z,59.15
2018-12-08T07:24:05.802Z,58.47
2018-12-08T07:26:32.121Z,58.58
2018-12-08T07:28:58.482Z,58.74
2018-12-08T07:31:24.819Z,58.66
2018-12-08T07:33:50.922Z,59.01
2018-12-08T07:36:17.305Z,58.48
2018-12-08T07:38:43.587Z,58.47
2018-12-08T07:41:09.792Z,58.17
2018-12-08T07:43:36.026Z,57.88
2018-12-08T07:46:02.289Z,57.88
2018-12-08T07:48:28.523Z,58.03
2018-12-08T07:50:54.871Z,58.24
2018-12-08T07:53:21.228Z,58.18
2018-12-08T07:55:47.541Z,57.37
2018-12-08T07:58:13.775Z,57.94
2018-12-08T08:00:40.117Z,57.32
2018-12-08T08:03:06.498Z,57.35
2018-12-08T08:05:32.866Z,57.85
2018-12-08T08:07:59.067Z,57.32
2018-12-08T08:10:25.302Z,56.89
2018-12-08T08:12:51.405Z,56.94
2018-12-08T08:15:17.643Z,56.59
2018-12-08T08:17:43.766Z,56.10
2018-12-08T08:20:13.748Z,56.58
2018-12-08T08:22:40.186Z,55.99
2018-12-08T08:25:07.225Z,56.59
2018-12-08T08:27:33.495Z,56.26
2018-12-08T08:32:38.227Z,55.76
2018-12-08T08:35:05.573Z,55.62
2018-12-08T08:37:31.969Z,55.78
2018-12-08T08:39:58.569Z,55.81
2018-12-08T08:42:24.837Z,56.06
2018-12-08T08:44:51.068Z,55.36
2018-12-08T08:47:17.166Z,56.02
2018-12-08T08:49:43.266Z,55.76
2018-12-08T08:52:09.354Z,54.79
2018-12-08T08:54:35.505Z,54.63
2018-12-08T08:57:01.813Z,54.33
2018-12-08T08:59:28.049Z,54.43
2018-12-08T09:01:54.330Z,53.56
2018-12-08T09:04:20.666Z,53.57
2018-12-08T09:06:46.973Z,54.06
2018-12-08T09:09:13.099Z,53.90
2018-12-08T09:11:39.195Z,53.17
2018-12-08T09:14:13.068Z,52.99
2018-12-08T09:16:33.965Z,53.71
2018-12-08T09:19:00.287Z,53.26
2018-12-08T09:21:26.387Z,52.92
2018-12-08T09:23:52.561Z,52.66
2018-12-08T09:26:18.749Z,53.36
2018-12-08T09:28:44.846Z,52.47
2018-12-08T09:31:11.904Z,52.25
2018-12-08T09:33:38.111Z,52.27
2018-12-08T09:36:04.393Z,51.75
2018-12-08T09:38:30.593Z,52.34
2018-12-08T09:40:56.933Z,52.64
2018-12-08T09:43:23.239Z,52.17
2018-12-08T09:45:49.438Z,52.68
2018-12-08T09:48:15.561Z,52.03
2018-12-08T09:50:41.685Z,52.12
2018-12-08T09:53:14.485Z,52.64
2018-12-08T09:55:40.831Z,52.66
2018-12-08T09:58:07.152Z,52.53
2018-12-08T10:00:33.485Z,52.05
2018-12-08T10:02:59.653Z,52.30
2018-12-08T10:05:25.969Z,52.17
2018-12-08T10:07:52.192Z,52.02
2018-12-08T10:10:18.518Z,51.28
2018-12-08T10:12:44.662Z,51.76
2018-12-08T10:15:11.008Z,51.16
2018-12-08T10:17:37.368Z,51.21
2018-12-08T10:20:03.736Z,51.52
2018-12-08T10:22:29.960Z,51.63
2018-12-08T10:24:56.050Z,52.19
2018-12-08T10:27:22.156Z,52.42
2018-12-08T10:29:48.229Z,51.52
2018-12-08T10:32:14.579Z,51.35
2018-12-08T10:34:40.854Z,51.41
2018-12-08T10:37:07.149Z,51.00
2018-12-08T10:39:33.436Z,50.43
2018-12-08T10:41:59.750Z,49.84
2018-12-08T10:44:25.962Z,50.26
2018-12-08T10:46:52.302Z,50.35
2018-12-08T10:49:18.457Z,49.21
2018-12-08T10:51:44.787Z,49.30
2018-12-08T10:54:11.090Z,49.10
2018-12-08T10:56:37.219Z,49.23
2018-12-08T10:59:03.398Z,49.42
2018-12-08T11:01:31.757Z,48.37
2018-12-08T11:03:57.993Z,48.84
2018-12-08T11:06:24.292Z,48.44
2018-12-08T11:08:50.551Z,49.14
2018-12-08T11:11:16.996Z,48.06
2018-12-08T11:13:43.301Z,48.53
2018-12-08T11:16:09.647Z,49.20
2018-12-08T11:18:36.101Z,48.62
2018-12-08T11:21:02.603Z,46.13
2018-12-08T11:23:28.730Z,46.07
2018-12-08T11:26:01.882Z,46.01
2018-12-08T11:28:28.032Z,47.95
2018-12-08T11:30:54.349Z,47.83
2018-12-08T11:33:20.573Z,47.41
2018-12-08T11:35:46.913Z,48.04
2018-12-08T11:38:13.233Z,48.40
2018-12-08T11:40:39.606Z,49.48
2018-12-08T11:43:05.809Z,48.78
2018-12-08T11:45:32.192Z,48.84
2018-12-08T11:47:58.461Z,47.21
2018-12-08T11:50:24.857Z,45.84
2018-12-08T11:52:51.265Z,44.29
2018-12-08T11:55:17.377Z,45.71
2018-12-08T11:57:43.485Z,47.47
2018-12-08T12:00:09.808Z,47.49
2018-12-08T12:02:35.919Z,47.99
2018-12-08T12:05:02.969Z,49.33
2018-12-08T12:07:29.209Z,48.99
2018-12-08T12:09:55.304Z,48.82
2018-12-08T12:12:21.514Z,49.56
2018-12-08T12:14:47.776Z,49.47
2018-12-08T12:17:13.973Z,50.40
2018-12-08T12:19:40.136Z,50.22
2018-12-08T12:22:06.464Z,49.64
2018-12-08T12:24:32.661Z,47.94
2018-12-08T12:26:58.942Z,47.32
2018-12-08T12:29:25.050Z,45.15
2018-12-08T12:31:51.297Z,42.85
2018-12-08T12:34:17.661Z,39.16
2018-12-08T12:36:43.975Z,42.85
2018-12-08T12:39:10.033Z,42.37
2018-12-08T12:41:36.142Z,39.94
2018-12-08T12:44:02.594Z,41.29
2018-12-08T12:46:28.686Z,40.51
2018-12-08T12:48:54.859Z,37.64
2018-12-08T12:51:21.229Z,37.61
2018-12-08T12:53:47.528Z,38.44
2018-12-08T12:56:13.728Z,37.32
2018-12-08T12:58:39.958Z,38.94
2018-12-08T13:01:06.263Z,34.49
2018-12-08T13:03:32.669Z,31.65
2018-12-08T13:05:58.880Z,32.51
2018-12-08T13:08:24.955Z,35.14
2018-12-08T13:10:51.193Z,38.25
2018-12-08T13:13:17.382Z,38.94
2018-12-08T13:15:43.606Z,42.69
2018-12-08T13:18:09.725Z,45.03
2018-12-08T13:20:35.857Z,47.36
2018-12-08T13:23:01.982Z,48.37
2018-12-08T13:25:28.117Z,49.53
2018-12-08T13:27:54.422Z,49.36
2018-12-08T13:30:20.778Z,48.06
2018-12-08T13:32:46.997Z,48.85
2018-12-08T13:35:47.453Z,47.29
2018-12-08T13:38:13.557Z,47.22
2018-12-08T13:40:39.730Z,48.33
2018-12-08T13:43:05.929Z,50.29
2018-12-08T13:45:32.073Z,51.58
2018-12-08T13:47:58.264Z,52.13
2018-12-08T13:50:24.480Z,52.34
2018-12-08T13:52:50.618Z,51.85
2018-12-08T13:55:16.924Z,52.26
2018-12-08T13:57:43.378Z,52.14
2018-12-08T14:00:09.668Z,52.44
2018-12-08T14:02:36.001Z,52.75
2018-12-08T14:05:02.617Z,53.21
2018-12-08T14:07:29.038Z,53.22
2018-12-08T14:09:55.350Z,52.95
2018-12-08T14:12:21.673Z,53.34
2018-12-08T14:14:47.782Z,53.82
2018-12-08T14:17:14.067Z,54.08
2018-12-08T14:19:40.351Z,53.98
2018-12-08T14:22:06.645Z,53.93
2018-12-08T14:24:32.753Z,53.05
2018-12-08T14:26:58.997Z,53.54
2018-12-08T14:29:26.176Z,53.74
2018-12-08T14:31:52.531Z,53.50
2018-12-08T14:34:19.033Z,54.73
2018-12-08T14:36:46.007Z,55.37
2018-12-08T14:39:19.160Z,55.12
2018-12-08T14:41:45.497Z,55.20
2018-12-08T14:44:11.678Z,56.35
2018-12-08T14:46:38.033Z,56.80
2018-12-08T14:49:04.150Z,57.10
2018-12-08T14:51:30.620Z,57.77
2018-12-08T14:56:38.173Z,57.89
2018-12-08T14:59:04.580Z,57.60
2018-12-08T15:01:30.778Z,57.76
2018-12-08T15:03:57.098Z,59.46
2018-12-08T15:06:23.309Z,60.94
2018-12-08T15:08:49.437Z,62.66
2018-12-08T15:11:15.818Z,63.51
2018-12-08T15:13:41.948Z,64.07
2018-12-08T15:16:08.292Z,66.68
2018-12-08T15:18:34.504Z,66.07
2018-12-08T15:21:00.781Z,67.22
2018-12-08T15:23:27.113Z,67.63
2018-12-08T15:25:53.992Z,68.43
2018-12-08T15:28:20.425Z,67.80
2018-12-08T15:30:46.733Z,68.62
2018-12-08T15:33:13.079Z,68.45
2018-12-08T15:35:39.553Z,68.27
2018-12-08T15:38:05.669Z,68.67
2018-12-08T15:40:32.223Z,68.44
2018-12-08T15:42:58.405Z,68.47
2018-12-08T15:45:24.775Z,68.25
2018-12-08T15:47:50.992Z,67.83
2018-12-08T15:50:17.284Z,67.76
2018-12-08T15:52:50.680Z,67.22
2018-12-08T15:55:17.017Z,67.16
2018-12-08T15:57:43.344Z,67.64
2018-12-08T16:00:11.895Z,67.24
2018-12-08T16:02:38.236Z,67.42
2018-12-08T16:05:08.617Z,66.68
2018-12-08T16:07:35.329Z,66.78
2018-12-08T16:10:02.585Z,66.05
2018-12-08T16:12:28.865Z,65.97
2018-12-08T16:14:55.228Z,66.09
2018-12-08T16:17:21.410Z,65.26
2018-12-08T16:19:47.620Z,63.99
2018-12-08T16:22:13.968Z,64.67
2018-12-08T16:24:40.561Z,64.09
2018-12-08T16:27:06.920Z,63.84
2018-12-08T16:29:33.108Z,64.30
2018-12-08T16:31:59.219Z,63.85
2018-12-08T16:34:25.457Z,63.73
2018-12-08T16:36:51.683Z,62.87
2018-12-08T16:39:17.882Z,63.73
2018-12-08T16:41:44.075Z,63.80
2018-12-08T16:44:10.285Z,63.79
2018-12-08T16:46:36.522Z,63.34
2018-12-08T16:49:02.858Z,62.64
2018-12-08T16:51:29.171Z,62.89
2018-12-08T16:53:57.481Z,62.48
2018-12-08T16:56:23.673Z,63.15
2018-12-08T16:58:49.810Z,62.32
2018-12-08T17:01:16.119Z,61.98
2018-12-08T17:03:42.443Z,61.61
2018-12-08T17:06:08.725Z,61.54
2018-12-08T17:08:34.858Z,61.45
2018-12-08T17:11:01.184Z,62.00
2018-12-08T17:13:27.286Z,62.32
2018-12-08T17:15:53.378Z,61.64
2018-12-08T17:18:19.650Z,62.41
2018-12-08T17:20:45.858Z,61.63
2018-12-08T17:23:12.290Z,61.68
2018-12-08T17:25:38.594Z,61.55
2018-12-08T17:28:04.856Z,62.06
2018-12-08T17:30:31.062Z,62.12
2018-12-08T17:32:57.265Z,62.22
2018-12-08T17:35:23.588Z,61.48
2018-12-08T17:37:50.111Z,62.17
2018-12-08T17:40:16.471Z,61.97
2018-12-08T17:42:42.817Z,61.63
2018-12-08T17:45:09.009Z,61.79
2018-12-08T17:47:35.252Z,61.93
2018-12-08T17:50:02.158Z,61.76
2018-12-08T17:52:28.518Z,62.34
2018-12-08T17:54:54.827Z,62.47
2018-12-08T17:57:20.930Z,62.34
2018-12-08T17:59:47.140Z,62.33
2018-12-08T18:02:13.415Z,62.12
2018-12-08T18:04:39.726Z,62.27
2018-12-08T18:07:06.022Z,62.40
2018-12-08T18:09:32.306Z,62.31
2018-12-08T18:11:58.732Z,62.66
2018-12-08T18:14:25.059Z,62.94
2018-12-08T18:16:51.290Z,62.46
2018-12-08T18:19:17.590Z,62.54
2018-12-08T18:21:43.675Z,62.77
2018-12-08T18:24:09.903Z,62.09
2018-12-08T18:26:36.140Z,62.63
2018-12-08T18:29:02.611Z,62.97
2018-12-08T18:31:28.902Z,62.61
2018-12-08T18:33:55.174Z,62.42
2018-12-08T18:36:21.378Z,62.49
2018-12-08T18:38:47.804Z,63.13
2018-12-08T18:41:14.034Z,62.83
2018-12-08T18:43:40.234Z,62.38
2018-12-08T18:46:06.638Z,62.73
2018-12-08T18:48:32.964Z,62.41
2018-12-08T18:50:59.258Z,62.83
2018-12-08T18:53:25.398Z,62.13
2018-12-08T18:55:51.735Z,62.25
2018-12-08T18:58:17.854Z,62.71
2018-12-08T19:00:44.197Z,61.96
2018-12-08T19:03:10.561Z,62.00
2018-12-08T19:05:43.896Z,62.19
2018-12-08T19:08:10.253Z,61.54
2018-12-08T19:10:36.649Z,61.38
2018-12-08T19:13:02.955Z,61.89
2018-12-08T19:15:29.390Z,61.85
2018-12-08T19:17:55.626Z,61.70
2018-12-08T19:20:21.892Z,61.56
2018-12-08T19:22:48.252Z,61.57
2018-12-08T19:25:14.742Z,61.29
2018-12-08T19:27:41.061Z,60.94
2018-12-08T19:30:07.957Z,60.74
2018-12-08T19:32:39.818Z,60.99
2018-12-08T19:35:06.157Z,60.36
2018-12-08T19:37:33.162Z,60.32
2018-12-08T19:39:59.546Z,59.76
2018-12-08T19:42:25.773Z,59.00
2018-12-08T19:44:52.145Z,59.57
2018-12-08T19:47:18.352Z,60.53
2018-12-08T19:49:45.497Z,60.86
2018-12-08T19:52:12.513Z,60.67
2018-12-08T19:54:39.558Z,60.38
2018-12-08T19:57:06.606Z,60.92
2018-12-08T19:59:32.855Z,60.61
2018-12-08T20:01:59.051Z,60.62
2018-12-08T20:04:25.247Z,60.30
2018-12-08T20:06:51.491Z,60.04
2018-12-08T20:09:17.606Z,60.58
2018-12-08T20:11:43.942Z,60.07
2018-12-08T20:14:10.145Z,59.87
2018-12-08T20:16:36.296Z,59.78
2018-12-08T20:19:03.658Z,59.98
2018-12-08T20:21:29.966Z,60.06
2018-12-08T20:23:56.134Z,60.59
2018-12-08T20:26:23.085Z,59.85
2018-12-08T20:28:49.889Z,59.46
2018-12-08T20:31:16.010Z,59.52
2018-12-08T20:33:42.253Z,59.10
2018-12-08T20:36:08.415Z,59.11
2018-12-08T20:38:34.722Z,58.73
2018-12-08T20:41:01.117Z,58.70
2018-12-08T20:43:27.322Z,58.30
2018-12-08T20:45:53.632Z,58.30
2018-12-08T20:48:19.762Z,58.18
2018-12-08T20:50:46.104Z,58.21
2018-12-08T20:53:12.260Z,57.88
2018-12-08T20:55:38.673Z,58.11
2018-12-08T20:58:04.828Z,58.30
2018-12-08T21:00:31.070Z,58.67
2018-12-08T21:02:57.174Z,57.83
2018-12-08T21:05:23.363Z,58.18
2018-12-08T21:07:49.540Z,58.51
2018-12-08T21:10:15.687Z,58.32
2018-12-08T21:12:42.766Z,58.78
2018-12-08T21:15:09.105Z,59.18
2018-12-08T21:17:35.329Z,59.28
2018-12-08T21:20:01.568Z,59.33
2018-12-08T21:22:27.960Z,58.76
2018-12-08T21:24:54.143Z,58.87
2018-12-08T21:27:20.583Z,58.87
2018-12-08T21:29:46.698Z,59.14
2018-12-08T21:32:13.211Z,59.23
2018-12-08T21:34:39.503Z,59.06
2018-12-08T21:37:05.785Z,59.14
2018-12-08T21:39:32.158Z,59.35
2018-12-08T21:41:58.496Z,59.19
2018-12-08T21:44:24.721Z,59.14
2018-12-08T21:46:51.082Z,58.73
2018-12-08T21:49:17.251Z,58.91
2018-12-08T21:51:43.437Z,58.35
2018-12-08T21:54:09.636Z,58.43
2018-12-08T21:56:36.986Z,58.32
2018-12-08T21:59:03.431Z,57.99
2018-12-08T22:01:29.887Z,57.70
2018-12-08T22:03:56.270Z,58.32
2018-12-08T22:06:22.495Z,58.04
2018-12-08T22:08:48.830Z,57.45
2018-12-08T22:11:15.180Z,57.82
2018-12-08T22:13:41.686Z,57.76
2018-12-08T22:16:08.026Z,56.88
2018-12-08T22:18:34.408Z,56.36
2018-12-08T22:21:02.056Z,56.98
2018-12-08T22:23:28.213Z,56.06
2018-12-08T22:25:55.494Z,56.49
2018-12-08T22:28:21.591Z,57.01
2018-12-08T22:30:48.050Z,56.90
2018-12-08T22:33:14.278Z,57.45
2018-12-08T22:35:40.589Z,57.20
2018-12-08T22:38:06.797Z,56.96
2018-12-08T22:40:33.097Z,56.77
2018-12-08T22:42:59.405Z,57.56
2018-12-08T22:45:25.708Z,57.63
2018-12-08T22:47:51.933Z,57.15
2018-12-08T22:50:18.287Z,57.32
2018-12-08T22:52:44.516Z,56.77
2018-12-08T22:55:10.850Z,57.20
2018-12-08T22:57:37.063Z,57.21
2018-12-08T23:00:14.197Z,56.81
2018-12-08T23:02:41.377Z,57.07
2018-12-08T23:05:07.676Z,56.81
2018-12-08T23:07:33.940Z,56.59
2018-12-08T23:10:00.300Z,56.38
2018-12-08T23:12:26.440Z,56.46
2018-12-08T23:14:52.623Z,56.17
2018-12-08T23:17:18.757Z,56.81
2018-12-08T23:19:45.086Z,56.30
2018-12-08T23:22:11.330Z,56.24
2018-12-08T23:24:38.602Z,56.71
2018-12-08T23:27:04.838Z,56.63
2018-12-08T23:29:31.255Z,55.98
2018-12-08T23:31:57.388Z,56.56
2018-12-08T23:34:23.621Z,56.00
2018-12-08T23:36:49.835Z,56.67
2018-12-08T23:39:16.142Z,56.53
2018-12-08T23:41:42.268Z,56.72
2018-12-08T23:44:08.613Z,57.13
2018-12-08T23:46:34.834Z,56.57
2018-12-08T23:49:01.083Z,56.39
2018-12-08T23:51:27.333Z,56.75
2018-12-08T23:53:53.569Z,56.11
2018-12-08T23:56:20.705Z,56.30
2018-12-08T23:58:46.849Z,56.53
